Aeroporto :
LOGIN :

Iscrizione | Disclaimer

   EN    FR    IT 

 










Sommario :    VFR   VFR Marginale   IFR   IFR Intensivo   IFR Molto Intensivo
Visibilità : 
Base nubi : 
>= 8 km
>= 3000ft
5 / 8 km
1000 / 3000 ft
1500m / 5 km
500 / 1000 ft
800 / 1500m
200 / 500 ft
< 800m
< 200 ft
Simboli :   Temporali  Nebbia  Neve Forte  Precipitazioni Forti  Vento > 20 kt
SIGMETs :   Varie  Temporali  Ghiacco  Turbolenza  Onda orograficha  Ceneri Vulcaniche






- Altitudine del aeroporto : 465 ft
- Codice IATA : LEJ


EDDP - Leipzig Halle

ULTIMO METAR :
  • 140050Z 28003KT 9999 -SHRA FEW033CB 21/18 Q1013 NOSIG

METARs OBSOLETI :
  • 140020Z 24005KT 9999 VCSH FEW030CB 20/17 Q1013 NOSIG
  • 132350Z 28003KT CAVOK 21/17 Q1013 NOSIG
  • 132320Z 27005KT CAVOK 21/17 Q1013 NOSIG
  • 132250Z 29003KT 250V320 CAVOK 20/18 Q1013 NOSIG
  • 132220Z 30004KT CAVOK 21/18 Q1013 NOSIG

TAF TAF EDDP
Valido dal 14 a 00 ore il 15 a 00 ore UTC


132300Z 1400/1424 VRB03KT CAVOK
PROB30
TEMPO 1401/1408 -TSRA BKN020CB
BECMG 1411/1414 25008KT
TEMPO 1411/1424 4500 TSRA BKN012CB



MetMap, La meteo Aeronautica in un colpo d'occhio ! - Copyright ORBIFLY Dicembre 2007 - Disclaimer

ORBIFLY MET'MAP TEAM :

Programmazione e sviluppo : Alexandra Zaïnal
Concezione : Baudouin d'Aumeries
Aiuto per la programmazione : Marc-Olivier Méhu
Supporto tecnico e logistico : Manuel Goepfert
Aiuto per la traduzione : Arnaldo La Scala

Contatto : metmap@orbifly.com




FONTI E CREDITI :

   NOAA